Time;durP1;ratioP1;P1;durP2;ratioP2;P2;SDS_P1;SDS_P2;PMS_P1;PMS_P2;Temp;Humidity;BMP_temperature;BMP_pressure;BME280_temperature;BME280_humidity;BME280_pressure;Samples;Min_cycle;Max_cycle;Signal;HPM_P1;HPM_P2
2021/06/14 00:01:34;;;;;;;12.30;4.45;;;11.40;99.90;;;10.12;100.00;102107.34;4989383;28;20069;-76
2021/06/14 00:04:00;;;;;;;13.27;4.82;;;11.40;99.90;;;10.07;100.00;102096.91;4995785;28;20057;-76
2021/06/14 00:06:26;;;;;;;14.05;5.15;;;11.30;99.90;;;10.04;100.00;102095.22;4998023;28;20131;-76
2021/06/14 00:08:52;;;;;;;11.50;5.00;;;11.30;99.90;;;10.01;100.00;102095.28;4986057;28;20093;-76
2021/06/14 00:11:18;;;;;;;13.93;5.20;;;11.30;99.90;;;10.06;100.00;102101.31;5014177;28;20103;-76
2021/06/14 00:13:44;;;;;;;14.70;4.60;;;11.40;99.90;;;10.09;100.00;102086.34;5011373;28;20092;-76
2021/06/14 00:16:10;;;;;;;12.10;5.18;;;11.40;99.90;;;10.02;99.81;102088.22;5030629;28;20069;-76
2021/06/14 00:18:37;;;;;;;14.90;4.60;;;11.30;99.90;;;10.02;100.00;102090.88;4991122;28;20095;-76
2021/06/14 00:21:10;;;;;;;16.95;4.90;;;11.30;99.90;;;10.00;100.00;102093.56;4988750;28;20058;-76
2021/06/14 00:23:37;;;;;;;19.80;4.47;;;11.30;99.90;;;9.96;99.99;102093.66;4993757;28;20088;-76
2021/06/14 00:26:09;;;;;;;16.00;5.13;;;11.30;99.90;;;9.85;100.00;102105.28;4978086;28;20169;-76
2021/06/14 00:28:36;;;;;;;17.80;5.03;;;11.10;99.90;;;9.77;99.94;102108.97;4995225;28;20093;-76
2021/06/14 00:31:03;;;;;;;14.95;5.78;;;11.10;99.90;;;9.73;100.00;102109.94;4989384;28;24416;-76
2021/06/14 00:33:29;;;;;;;16.77;5.78;;;11.00;99.90;;;9.67;100.00;102104.78;4979179;28;20724;-76
2021/06/14 00:35:57;;;;;;;11.60;4.72;;;11.00;99.90;;;9.66;100.00;102109.19;4976825;28;20070;-76
2021/06/14 00:38:23;;;;;;;16.45;5.38;;;11.00;99.90;;;9.70;100.00;102109.97;5016971;28;20096;-76
2021/06/14 00:40:49;;;;;;;12.02;4.93;;;11.00;99.90;;;9.62;100.00;102100.50;5022941;28;20070;-76
2021/06/14 00:43:17;;;;;;;17.08;5.95;;;10.90;99.90;;;9.52;100.00;102109.47;5010605;28;20077;-76
2021/06/14 00:45:47;;;;;;;19.70;5.47;;;10.80;99.90;;;9.43;100.00;102099.13;4997549;28;20580;-76
2021/06/14 00:48:18;;;;;;;10.93;4.95;;;10.70;99.90;;;9.48;100.00;102106.94;4976538;28;20076;-76
2021/06/14 00:50:58;;;;;;;12.40;4.90;;;10.70;99.90;;;9.43;100.00;102105.25;5002378;28;20063;-76
2021/06/14 00:53:32;;;;;;;13.70;4.68;;;10.80;99.90;;;9.47;100.00;102105.22;5012609;28;20103;-76
2021/06/14 00:56:07;;;;;;;13.40;5.07;;;10.70;99.90;;;9.41;100.00;102100.94;4996633;28;20140;-76
2021/06/14 00:58:33;;;;;;;15.23;5.05;;;10.70;99.90;;;9.31;100.00;102102.88;4995829;28;20487;-76
2021/06/14 01:00:59;;;;;;;12.82;4.78;;;10.60;99.90;;;9.22;100.00;102092.53;5008913;28;20076;-76
2021/06/14 01:03:26;;;;;;;13.23;4.57;;;10.50;99.90;;;9.17;100.00;102100.50;4966822;28;20063;-76
2021/06/14 01:05:58;;;;;;;13.27;4.88;;;10.50;99.90;;;9.12;100.00;102097.09;4992394;28;20219;-76
2021/06/14 01:08:26;;;;;;;13.98;4.53;;;10.40;99.90;;;9.07;100.00;102098.97;5027596;28;20156;-76
2021/06/14 01:10:56;;;;;;;13.35;4.65;;;10.40;99.90;;;9.06;100.00;102101.59;5010854;28;20065;-75
2021/06/14 01:13:45;;;;;;;15.07;5.35;;;10.40;99.90;;;9.03;100.00;102092.03;4965721;28;20074;-76
2021/06/14 01:16:38;;;;;;;12.85;5.10;;;10.40;99.90;;;9.06;100.00;102086.69;4988379;28;20544;-76
2021/06/14 01:19:09;;;;;;;14.82;5.25;;;10.40;99.90;;;8.97;100.00;102092.13;5030756;28;20075;-76
2021/06/14 01:21:52;;;;;;;11.30;4.90;;;10.30;99.90;;;8.92;100.00;102091.34;5001501;28;20146;-76
2021/06/14 01:24:31;;;;;;;17.88;5.38;;;10.20;99.90;;;8.74;100.00;102090.75;4988928;28;20757;-76
2021/06/14 01:27:12;;;;;;;11.25;4.05;;;10.10;99.90;;;8.65;100.00;102090.06;4968074;28;20490;-75
2021/06/14 01:29:40;;;;;;;14.75;5.00;;;10.00;99.90;;;8.59;100.00;102093.66;5007435;28;20062;-76
2021/06/14 01:32:08;;;;;;;16.70;4.75;;;9.90;99.90;;;8.55;100.00;102087.59;4972651;28;20070;-75
2021/06/14 01:34:41;;;;;;;13.23;6.10;;;9.90;99.90;;;8.48;100.00;102083.31;4997733;28;20137;-76
2021/06/14 01:37:08;;;;;;;12.25;4.53;;;9.80;99.90;;;8.32;100.00;102084.44;5024115;28;20073;-76
2021/06/14 01:39:40;;;;;;;18.80;4.53;;;9.70;99.90;;;8.24;100.00;102081.91;5026838;28;20079;-76
2021/06/14 01:42:09;;;;;;;14.48;4.65;;;9.50;99.90;;;8.15;100.00;102089.94;4982184;28;21518;-76
2021/06/14 01:44:36;;;;;;;15.60;5.40;;;9.50;99.90;;;8.18;100.00;102082.00;4954921;28;20275;-76
2021/06/14 01:47:06;;;;;;;14.75;5.45;;;9.60;99.90;;;8.21;100.00;102090.72;4977608;28;20066;-76
2021/06/14 01:49:35;;;;;;;20.52;5.75;;;9.60;99.90;;;8.21;100.00;102082.84;4985969;28;20453;-76
2021/06/14 01:52:01;;;;;;;14.27;5.68;;;9.60;99.90;;;8.22;100.00;102081.06;4992554;28;20066;-76
2021/06/14 01:54:28;;;;;;;16.65;5.68;;;9.50;99.90;;;8.16;100.00;102075.91;4977777;28;20088;-76
2021/06/14 01:56:56;;;;;;;13.80;5.07;;;9.50;99.90;;;8.13;100.00;102078.59;4983574;28;20059;-76
2021/06/14 01:59:36;;;;;;;19.75;5.38;;;9.50;99.90;;;8.13;100.00;102079.47;4992854;28;20432;-76
2021/06/14 02:02:05;;;;;;;14.02;5.72;;;9.50;99.90;;;8.17;100.00;102078.53;5001509;28;20595;-76
2021/06/14 02:04:39;;;;;;;16.83;5.80;;;9.60;99.90;;;8.22;100.00;102083.69;4975280;28;20082;-76
2021/06/14 02:07:05;;;;;;;17.08;6.35;;;9.60;99.90;;;8.23;100.00;102072.34;5009022;28;20334;-76
2021/06/14 02:09:35;;;;;;;17.42;5.57;;;9.60;99.90;;;8.21;100.00;102068.88;4988794;28;20541;-76
2021/06/14 02:12:04;;;;;;;18.77;6.22;;;9.60;99.90;;;8.22;100.00;102073.19;5011397;28;20430;-76
2021/06/14 02:14:37;;;;;;;19.77;6.55;;;9.70;99.90;;;8.28;100.00;102060.00;5013414;28;20090;-76
2021/06/14 02:17:09;;;;;;;17.83;5.95;;;9.80;99.90;;;8.38;100.00;102064.22;5009692;28;20082;-76
2021/06/14 02:19:46;;;;;;;18.60;6.47;;;9.80;99.90;;;8.37;100.00;102061.59;5010992;28;20061;-75
2021/06/14 02:22:15;;;;;;;22.52;6.47;;;9.70;99.90;;;8.35;100.00;102061.63;4993374;28;20070;-76
2021/06/14 02:24:41;;;;;;;12.52;5.93;;;9.80;99.90;;;8.46;100.00;102063.25;5001491;28;20203;-76
2021/06/14 02:27:15;;;;;;;19.15;6.63;;;9.80;99.90;;;8.47;100.00;102062.38;5000430;28;20066;-76
2021/06/14 02:29:41;;;;;;;16.95;5.95;;;9.80;99.90;;;8.46;100.00;102058.00;5012847;28;21580;-76
2021/06/14 02:32:08;;;;;;;11.18;6.30;;;9.90;99.90;;;8.48;100.00;102064.94;4984654;28;20070;-76
2021/06/14 02:34:39;;;;;;;17.80;6.72;;;9.90;99.90;;;8.56;100.00;102064.84;5010605;28;20062;-76
2021/06/14 02:37:07;;;;;;;26.48;7.43;;;9.90;99.90;;;8.58;100.00;102060.44;5008463;28;20068;-76
2021/06/14 02:39:34;;;;;;;20.73;7.13;;;10.00;99.90;;;8.58;100.00;102063.06;4963642;28;20148;-76
2021/06/14 02:42:02;;;;;;;17.30;6.45;;;10.00;99.90;;;8.61;100.00;102062.97;4993886;28;20164;-76
2021/06/14 02:44:31;;;;;;;15.27;6.05;;;10.00;99.90;;;8.61;100.00;102063.84;4973181;28;20071;-75
2021/06/14 02:47:08;;;;;;;17.38;6.63;;;10.00;99.90;;;8.60;100.00;102061.25;4957005;28;20071;-76
2021/06/14 02:49:37;;;;;;;;;;;10.00;99.90;;;8.59;100.00;102056.91;4990888;28;20084;-76
2021/06/14 02:52:10;;;;;;;13.93;5.93;;;10.00;99.90;;;8.55;100.00;102055.22;4981122;28;19997;-76
2021/06/14 02:55:05;;;;;;;19.23;6.50;;;9.90;99.90;;;8.50;100.00;102050.03;4999031;28;20057;-75
2021/06/14 02:57:34;;;;;;;16.05;5.68;;;9.90;99.90;;;8.46;100.00;102050.13;5014015;28;20152;-75
2021/06/14 03:00:01;;;;;;;17.95;5.90;;;9.80;99.90;;;8.43;100.00;102050.19;4979475;28;20065;-75
2021/06/14 03:02:27;;;;;;;14.90;5.57;;;9.80;99.90;;;8.39;100.00;102051.94;5019946;28;20115;-76
2021/06/14 03:04:54;;;;;;;16.20;5.95;;;9.80;99.90;;;8.40;100.00;102053.66;5021853;28;20233;-75
2021/06/14 03:07:27;;;;;;;18.58;5.25;;;9.80;99.90;;;8.39;100.00;102058.06;4982373;28;20425;-75
2021/06/14 03:09:54;;;;;;;12.52;5.13;;;9.80;99.90;;;8.40;100.00;102045.78;5015894;28;20170;-76
2021/06/14 03:12:23;;;;;;;12.25;5.47;;;9.80;99.90;;;8.40;100.00;102053.66;5005578;28;20055;-76
2021/06/14 03:14:50;;;;;;;10.77;5.10;;;9.90;99.90;;;8.43;100.00;102044.94;5017651;28;20082;-75
2021/06/14 03:17:17;;;;;;;16.77;5.90;;;9.90;99.90;;;8.45;100.00;102051.88;5008814;28;20089;-76
2021/06/14 03:19:46;;;;;;;18.23;6.28;;;9.90;99.90;;;8.49;100.00;102047.44;5007304;28;20537;-76
2021/06/14 03:22:13;;;;;;;15.23;5.85;;;10.00;99.90;;;8.54;100.00;102046.47;5037894;28;20071;-75
2021/06/14 03:24:40;;;;;;;14.50;5.78;;;10.00;99.90;;;8.58;100.00;102045.53;5014650;28;20139;-75
2021/06/14 03:27:08;;;;;;;15.75;5.75;;;10.00;99.90;;;8.61;100.00;102057.72;5022360;28;20069;-76
2021/06/14 03:29:36;;;;;;;13.02;6.05;;;10.10;99.90;;;8.66;100.00;102049.78;5014686;28;20544;-75
2021/06/14 03:32:06;;;;;;;11.15;5.22;;;10.20;99.90;;;8.70;100.00;102043.56;5004578;28;20066;-76
2021/06/14 03:34:35;;;;;;;14.05;5.60;;;10.20;99.90;;;8.78;100.00;102049.56;4997588;28;20478;-76
2021/06/14 03:37:03;;;;;;;12.10;5.03;;;10.30;99.90;;;8.88;100.00;102050.28;5003408;28;20063;-76
2021/06/14 03:39:29;;;;;;;11.27;5.35;;;10.50;99.90;;;9.11;100.00;102050.69;5018619;28;20470;-76
2021/06/14 03:41:55;;;;;;;20.02;5.95;;;11.10;99.90;;;9.70;100.00;102046.84;4998210;28;20070;-75
2021/06/14 03:44:22;;;;;;;17.52;6.22;;;12.30;99.90;;;10.72;99.60;102030.41;5006812;28;20059;-75
2021/06/14 03:46:49;;;;;;;11.63;5.35;;;13.50;99.90;;;11.90;93.94;102028.81;5014593;28;20094;-75
2021/06/14 03:49:15;;;;;;;9.23;4.15;;;14.90;99.90;;;12.97;88.74;102023.47;5005339;28;20066;-76
2021/06/14 03:51:44;;;;;;;15.00;3.67;;;16.00;99.90;;;14.20;81.84;102027.56;5014665;28;20109;-76
2021/06/14 03:54:10;;;;;;;7.38;3.13;;;16.40;99.90;;;14.96;77.27;102018.16;5006455;28;20432;-76
2021/06/14 03:56:37;;;;;;;7.72;2.72;;;16.50;99.90;;;15.21;74.82;102024.16;5020738;28;20048;-76
2021/06/14 03:59:04;;;;;;;5.97;2.88;;;17.10;99.90;;;15.87;72.99;102019.28;5005278;28;20531;-76
2021/06/14 04:01:31;;;;;;;10.55;2.90;;;17.70;99.90;;;16.50;70.76;102018.84;5031168;28;20041;-76
2021/06/14 04:06:59;;;;;;;5.25;2.63;;;19.30;99.90;;;17.90;64.64;102023.81;4956157;28;20479;-76
2021/06/14 04:09:25;;;;;;;7.88;2.80;;;19.30;99.90;;;17.83;63.67;102017.97;4978210;28;20034;-76
2021/06/14 04:11:51;;;;;;;6.40;2.60;;;19.70;99.90;;;18.31;63.91;102012.56;4976282;28;20374;-76
2021/06/14 04:14:17;;;;;;;4.65;2.75;;;20.60;99.90;;;18.67;63.50;102014.84;4985403;28;21118;-76
2021/06/14 04:16:42;;;;;;;6.05;2.88;;;21.80;99.90;;;19.60;60.20;102007.34;5001864;28;20026;-76
2021/06/14 04:19:11;;;;;;;8.93;2.30;;;22.60;99.90;;;20.17;56.83;102011.66;4970753;28;20134;-76
2021/06/14 04:21:36;;;;;;;7.57;2.60;;;22.70;99.90;;;20.45;56.32;102006.19;5002803;28;20033;-76
2021/06/14 04:24:05;;;;;;;6.93;2.78;;;22.80;99.90;;;20.78;54.46;102009.34;4985621;28;20030;-76
2021/06/14 04:26:31;;;;;;;10.13;3.03;;;22.90;99.90;;;21.18;53.30;102006.53;5001561;28;20048;-76
2021/06/14 04:29:00;;;;;;;5.97;2.88;;;23.50;99.60;;;21.59;52.85;102000.03;4951653;28;20048;-77
2021/06/14 04:31:26;;;;;;;6.13;2.85;;;24.10;97.80;;;21.83;51.36;102008.94;4987918;28;20053;-76
2021/06/14 04:33:52;;;;;;;6.03;2.80;;;23.50;98.00;;;21.78;51.91;102005.75;4993129;28;20125;-77
2021/06/14 04:36:19;;;;;;;6.85;3.28;;;23.70;98.60;;;21.91;52.07;102003.00;4985908;28;20050;-76
2021/06/14 04:38:45;;;;;;;7.20;2.40;;;24.30;98.00;;;22.02;52.90;102003.06;4981636;28;20025;-77
2021/06/14 04:41:12;;;;;;;5.63;2.40;;;25.10;96.80;;;22.77;50.54;102001.84;4968232;28;20030;-76
2021/06/14 04:43:37;;;;;;;6.95;2.83;;;25.80;94.70;;;23.03;50.01;102009.72;4987465;28;20029;-76
2021/06/14 04:46:08;;;;;;;7.13;2.38;;;25.80;93.50;;;23.25;48.91;102008.88;4983933;28;20429;-77
2021/06/14 04:48:34;;;;;;;6.85;2.83;;;26.40;93.90;;;23.87;47.52;102010.13;4978289;28;20044;-77
2021/06/14 04:51:00;;;;;;;7.13;2.72;;;26.30;93.10;;;24.34;46.92;102014.22;4994163;28;20381;-76
2021/06/14 04:53:26;;;;;;;6.30;2.40;;;26.30;91.20;;;24.35;44.56;102009.66;4974222;28;20492;-77
2021/06/14 04:55:53;;;;;;;7.70;2.53;;;26.50;92.50;;;24.63;46.15;102008.19;5022541;28;20033;-77
2021/06/14 04:58:22;;;;;;;7.40;2.75;;;27.20;90.60;;;24.97;44.23;102006.13;5004591;28;20109;-77
2021/06/14 05:00:48;;;;;;;5.25;2.60;;;27.50;90.40;;;25.44;43.92;102016.38;4985051;28;20042;-76
2021/06/14 05:03:13;;;;;;;8.25;2.70;;;27.10;89.60;;;25.06;43.66;102012.53;4974731;28;20077;-76
2021/06/14 05:05:39;;;;;;;6.75;2.85;;;27.40;90.00;;;25.85;41.45;102011.75;4984506;28;20038;-76
2021/06/14 05:08:06;;;;;;;6.70;3.00;;;27.30;90.10;;;25.62;43.59;102021.13;4990257;28;20056;-77
2021/06/14 05:10:32;;;;;;;6.57;2.63;;;28.00;86.30;;;25.40;41.94;102017.66;5021110;28;20083;-76
2021/06/14 05:12:58;;;;;;;10.77;2.70;;;26.80;90.20;;;24.23;46.45;102014.25;5025434;28;20104;-77
2021/06/14 05:15:25;;;;;;;11.05;3.20;;;27.30;88.90;;;24.16;46.36;102010.38;4999698;28;20034;-77
2021/06/14 05:17:51;;;;;;;5.63;2.65;;;26.50;88.00;;;22.92;48.23;102011.38;5002516;28;20104;-76
2021/06/14 05:20:18;;;;;;;6.47;2.65;;;25.00;91.10;;;21.08;54.72;102025.94;5012803;28;20080;-77
2021/06/14 05:22:45;;;;;;;6.03;2.47;;;24.70;92.30;;;21.90;51.93;102020.94;5008099;28;20102;-76
2021/06/14 05:25:12;;;;;;;7.00;2.67;;;25.00;92.40;;;22.23;50.32;102015.88;5003757;28;20037;-77
2021/06/14 05:27:38;;;;;;;9.20;2.67;;;25.30;92.20;;;23.28;48.70;102014.84;5002127;28;20438;-77
2021/06/14 05:30:07;;;;;;;6.40;2.72;;;25.30;91.70;;;22.64;50.03;102027.97;5028950;28;20108;-77
2021/06/14 05:32:33;;;;;;;8.60;2.88;;;25.70;91.30;;;23.20;48.61;102028.03;5035819;28;20485;-76
2021/06/14 05:35:00;;;;;;;6.03;2.67;;;25.70;91.70;;;22.98;48.90;102020.81;5022186;28;20029;-77
2021/06/14 05:37:25;;;;;;;9.35;3.10;;;24.80;91.80;;;21.77;52.95;102024.63;4984425;28;20115;-76
2021/06/14 05:39:51;;;;;;;7.88;3.53;;;25.00;92.40;;;22.27;51.36;102031.63;5011255;28;20021;-76
2021/06/14 05:42:17;;;;;;;7.78;2.65;;;24.60;93.20;;;22.42;51.30;102028.72;5005049;28;20048;-76
2021/06/14 05:44:45;;;;;;;5.30;2.47;;;24.20;93.20;;;20.84;55.91;102031.19;5000474;28;20030;-76
2021/06/14 05:47:11;;;;;;;8.65;2.83;;;24.30;94.70;;;22.65;51.81;102024.28;5021007;28;20021;-76
2021/06/14 05:49:37;;;;;;;8.55;2.78;;;25.60;92.10;;;24.38;45.16;102025.53;5011279;28;20398;-76
2021/06/14 05:52:03;;;;;;;7.75;2.97;;;26.30;91.70;;;25.06;45.09;102028.69;5004921;28;20017;-76
2021/06/14 05:54:29;;;;;;;7.03;2.50;;;27.10;90.70;;;25.88;43.89;102030.41;4980568;28;20057;-77
2021/06/14 05:56:55;;;;;;;8.45;3.00;;;27.70;87.60;;;26.62;40.50;102026.28;5003207;28;20544;-76
2021/06/14 05:59:21;;;;;;;6.68;2.30;;;28.50;86.10;;;26.83;39.22;102022.56;5004108;28;21249;-77
2021/06/14 06:01:47;;;;;;;10.07;3.13;;;26.90;86.80;;;26.19;40.14;102017.63;4985634;28;20025;-76
2021/06/14 06:04:14;;;;;;;8.40;3.03;;;26.30;89.00;;;26.08;41.00;102017.78;4984643;28;20469;-76
2021/06/14 06:06:40;;;;;;;7.68;2.67;;;27.60;88.50;;;26.84;40.48;102017.00;5005375;28;20508;-76
2021/06/14 06:09:06;;;;;;;10.65;2.72;;;27.60;83.90;;;23.39;46.81;102016.69;4995857;28;20052;-77
2021/06/14 06:11:32;;;;;;;8.25;2.80;;;25.40;90.20;;;22.91;49.14;102019.56;5012026;28;20489;-77
2021/06/14 06:13:58;;;;;;;11.57;2.90;;;25.70;91.20;;;23.69;47.73;102010.63;5009963;28;20036;-77
2021/06/14 06:16:24;;;;;;;5.70;2.70;;;26.50;90.70;;;24.17;45.14;102006.72;5014137;28;20033;-76
2021/06/14 06:18:52;;;;;;;6.53;2.67;;;25.60;91.10;;;23.63;47.96;102010.25;5018244;28;20032;-77
2021/06/14 06:21:18;;;;;;;6.53;2.58;;;26.10;90.20;;;23.77;47.68;102011.88;4977970;28;20030;-76
2021/06/14 06:23:44;;;;;;;12.05;3.10;;;27.00;89.00;;;26.04;42.52;102005.56;5001811;28;20025;-77
2021/06/14 06:26:10;;;;;;;9.93;2.80;;;28.40;86.40;;;25.92;41.75;102010.25;5003348;28;20156;-75
2021/06/14 06:28:36;;;;;;;11.00;2.78;;;27.30;85.80;;;24.10;46.31;102021.63;5002650;28;20104;-75
2021/06/14 06:31:02;;;;;;;8.68;3.00;;;27.40;87.00;;;25.10;44.08;102011.28;5002135;28;20036;-75
2021/06/14 06:33:28;;;;;;;10.43;2.47;;;27.80;84.20;;;26.17;39.29;102014.22;4994362;28;20036;-75
2021/06/14 06:35:54;;;;;;;6.93;2.30;;;26.50;86.30;;;26.07;39.41;102007.13;4990801;28;20029;-75
2021/06/14 06:38:20;;;;;;;7.05;2.33;;;26.60;86.40;;;26.23;39.20;102006.56;5006927;28;20034;-74
2021/06/14 06:40:46;;;;;;;6.20;2.05;;;26.40;86.90;;;26.36;39.54;102010.66;4999541;28;20063;-75
2021/06/14 06:43:11;;;;;;;5.88;2.42;;;27.00;87.90;;;26.66;39.36;102016.91;5022077;28;20559;-75
2021/06/14 06:45:37;;;;;;;7.25;2.53;;;28.20;85.60;;;27.41;38.44;102008.81;4997567;28;20439;-75
2021/06/14 06:48:04;;;;;;;9.50;2.25;;;28.20;83.70;;;27.12;38.14;102012.47;5004916;28;20484;-75
2021/06/14 06:50:30;;;;;;;6.25;2.00;;;28.60;82.50;;;27.57;38.11;102003.59;5015295;28;20030;-75
2021/06/14 06:52:56;;;;;;;6.00;2.45;;;28.10;81.00;;;27.59;36.15;101990.75;5005153;28;20046;-75
2021/06/14 06:55:23;;;;;;;8.07;2.45;;;28.10;82.90;;;27.92;36.90;101996.53;4984467;28;20470;-75
2021/06/14 06:57:49;;;;;;;5.22;1.95;;;29.00;80.20;;;27.88;35.91;102007.81;4968421;28;20034;-75
2021/06/14 07:00:19;;;;;;;8.30;2.58;;;29.10;79.30;;;28.46;35.19;102001.88;4993426;28;20026;-75
2021/06/14 07:02:46;;;;;;;6.68;2.63;;;28.90;78.00;;;28.00;34.97;101999.31;5022964;28;20022;-75
2021/06/14 07:05:12;;;;;;;9.73;3.33;;;27.30;83.80;;;27.56;37.71;102003.72;5007079;28;20523;-75
2021/06/14 07:07:38;;;;;;;8.23;2.53;;;27.20;83.40;;;27.24;36.97;101991.56;5021255;28;20030;-75
2021/06/14 07:10:07;;;;;;;7.28;2.33;;;26.40;82.90;;;26.21;37.69;101984.25;4986921;28;20029;-74
2021/06/14 07:12:37;;;;;;;5.68;2.35;;;25.90;86.10;;;26.04;39.84;101988.53;5013561;28;20029;-75
2021/06/14 07:15:07;;;;;;;9.65;2.55;;;25.70;85.40;;;26.03;38.22;101985.00;5003573;28;20521;-74
2021/06/14 07:17:33;;;;;;;8.13;2.45;;;26.10;84.80;;;26.93;36.93;101989.09;4983533;28;20083;-75
2021/06/14 07:19:59;;;;;;;4.88;2.25;;;26.80;84.20;;;27.81;36.07;101981.34;4981676;28;20033;-75
2021/06/14 07:22:25;;;;;;;6.57;2.63;;;27.50;83.10;;;27.69;36.48;101981.72;5005611;28;20029;-75
2021/06/14 07:24:51;;;;;;;5.35;2.08;;;27.60;85.10;;;28.43;35.12;101981.38;5003619;28;20076;-75
2021/06/14 07:27:17;;;;;;;6.18;2.15;;;27.40;82.30;;;27.65;35.71;101978.50;4997375;28;20037;-75
2021/06/14 07:29:42;;;;;;;6.32;2.53;;;27.40;81.10;;;27.88;34.72;101978.88;5006246;28;20021;-75
2021/06/14 07:32:09;;;;;;;6.38;2.53;;;27.20;82.80;;;28.19;34.51;101979.34;5004546;28;22668;-75
2021/06/14 07:34:34;;;;;;;7.15;2.65;;;26.60;83.30;;;26.84;36.60;101976.47;4997119;28;20042;-74
2021/06/14 07:37:01;;;;;;;9.98;3.00;;;25.90;84.60;;;26.17;38.17;101973.72;4993428;28;20030;-75
2021/06/14 07:39:27;;;;;;;8.35;2.80;;;25.60;85.80;;;26.49;38.12;101963.63;4978020;28;20018;-74
2021/06/14 07:41:54;;;;;;;10.65;2.75;;;26.50;84.40;;;27.36;36.26;101955.16;4971734;28;20390;-75
2021/06/14 07:44:20;;;;;;;5.65;2.30;;;27.10;81.50;;;27.11;36.11;101958.59;4995794;28;20109;-75
2021/06/14 07:46:46;;;;;;;4.63;2.20;;;26.40;83.70;;;26.91;36.71;101963.22;4995417;28;20045;-74
2021/06/14 07:49:11;;;;;;;9.05;2.17;;;26.40;82.40;;;26.73;36.64;101969.38;4980758;28;20042;-75
2021/06/14 07:51:38;;;;;;;4.13;1.73;;;26.20;85.20;;;27.02;37.24;101960.34;4991748;28;20029;-75
2021/06/14 07:54:04;;;;;;;5.78;2.17;;;26.50;82.90;;;27.08;36.92;101967.81;4977771;28;20485;-75
2021/06/14 07:56:30;;;;;;;7.60;1.98;;;26.80;82.50;;;27.31;35.94;101959.34;4978212;28;20048;-75
2021/06/14 07:58:56;;;;;;;4.93;2.22;;;26.30;83.70;;;26.77;37.64;101956.44;4976655;28;20017;-74
2021/06/14 08:01:22;;;;;;;6.43;2.33;;;26.80;85.40;;;27.42;37.27;101948.31;4974144;28;20033;-74
2021/06/14 08:03:48;;;;;;;6.80;2.20;;;27.60;81.80;;;27.59;37.21;101950.19;4998779;28;20125;-75
2021/06/14 08:06:14;;;;;;;5.18;1.80;;;27.30;82.10;;;27.12;36.89;101952.16;5012722;28;20045;-75
2021/06/14 08:08:40;;;;;;;3.38;1.63;;;26.90;84.90;;;26.79;37.78;101949.03;5034987;28;20144;-75
2021/06/14 08:11:08;;;;;;;3.47;1.80;;;25.80;83.60;;;25.34;39.40;101945.41;5013230;28;20041;-76
2021/06/14 08:13:34;;;;;;;4.65;2.63;;;25.40;85.70;;;25.42;39.81;101948.28;4989484;28;20040;-76
2021/06/14 08:16:00;;;;;;;13.27;3.47;;;25.50;86.70;;;25.33;41.29;101955.31;5002813;28;20037;-76
2021/06/14 08:26:39;;;;;;;7.30;3.05;;;26.20;84.50;;;25.43;40.46;101931.09;5032259;28;20132;-80
2021/06/14 08:29:05;;;;;;;4.82;1.83;;;26.10;85.90;;;24.92;41.68;101929.38;4999281;28;20034;-76
2021/06/14 08:31:34;;;;;;;5.13;2.45;;;25.20;87.10;;;24.66;42.20;101921.75;5010163;28;20026;-76
2021/06/14 08:34:01;;;;;;;4.50;1.80;;;25.00;87.60;;;24.54;41.62;101920.16;5026422;28;20040;-76
2021/06/14 08:36:31;;;;;;;4.50;1.20;;;24.90;89.40;;;24.41;42.56;101908.72;5011250;28;20369;-75
2021/06/14 08:38:58;;;;;;;6.50;1.67;;;24.40;89.70;;;23.84;43.89;101906.31;5015559;28;20014;-76
2021/06/14 08:41:25;;;;;;;5.15;1.52;;;24.60;89.60;;;23.93;43.86;101908.25;5000847;28;20030;-75
2021/06/14 08:43:55;;;;;;;6.95;1.60;;;24.80;88.70;;;23.94;43.40;101909.09;5001296;28;20476;-75
2021/06/14 08:46:21;;;;;;;2.85;1.30;;;24.20;88.50;;;23.33;44.22;101904.31;5016239;28;20044;-76
2021/06/14 08:48:48;;;;;;;2.42;1.15;;;23.70;90.70;;;23.06;44.72;101904.72;4984139;28;20059;-75
2021/06/14 08:51:14;;;;;;;5.72;1.58;;;23.60;90.90;;;23.03;45.56;101892.38;5008515;28;20460;-76
2021/06/14 08:53:40;;;;;;;3.40;1.25;;;23.70;90.80;;;23.24;44.10;101899.66;5018984;28;20101;-76
2021/06/14 08:56:07;;;;;;;2.65;1.40;;;24.00;90.30;;;23.42;44.30;101898.16;5011157;28;20083;-75
2021/06/14 08:58:33;;;;;;;3.25;1.23;;;23.60;91.30;;;22.99;45.74;101903.47;5021727;28;20017;-75
2021/06/14 09:01:13;;;;;;;6.03;1.30;;;23.80;91.30;;;23.19;45.60;101891.13;4993935;28;20172;-76
2021/06/14 09:03:55;;;;;;;2.28;0.85;;;23.80;91.20;;;23.47;44.66;101889.72;4975868;28;20862;-76
2021/06/14 09:06:43;;;;;;;6.65;1.33;;;24.30;90.30;;;23.70;43.82;101895.88;4952068;28;20459;-76
2021/06/14 09:09:34;;;;;;;3.67;0.98;;;23.70;90.60;;;22.96;45.03;101887.59;4939546;28;20112;-76
2021/06/14 09:12:26;;;;;;;4.63;1.27;;;23.50;91.90;;;22.98;46.34;101877.59;4964921;28;20417;-76
2021/06/14 09:15:15;;;;;;;4.80;1.20;;;23.40;92.10;;;22.76;45.85;101865.03;4951686;28;20583;-76
2021/06/14 09:18:19;;;;;;;5.05;1.10;;;23.40;92.00;;;23.09;45.42;101875.78;4972442;28;20478;-75
2021/06/14 09:21:24;;;;;;;2.55;1.20;;;23.30;91.10;;;22.60;45.61;101873.47;4983004;28;20044;-76
2021/06/14 09:24:18;;;;;;;3.42;1.20;;;23.00;92.00;;;22.51;46.32;101875.06;4957712;28;20109;-75
2021/06/14 09:27:34;;;;;;;3.05;0.98;;;22.90;92.40;;;22.73;46.47;101867.00;4955814;28;20038;-75
2021/06/14 09:30:52;;;;;;;2.65;1.05;;;23.50;91.00;;;23.43;44.57;101856.84;4955625;28;20026;-76
2021/06/14 09:33:45;;;;;;;2.53;1.10;;;23.80;91.00;;;23.68;43.30;101852.13;4956583;28;20824;-76
2021/06/14 09:36:51;;;;;;;18.92;1.42;;;23.90;90.80;;;23.60;42.74;101836.63;4930894;28;20037;-75
2021/06/14 09:40:16;;;;;;;3.03;1.20;;;23.60;90.90;;;22.98;43.50;101834.59;4969540;28;20087;-75
2021/06/14 09:43:53;;;;;;;7.90;1.00;;;24.00;92.20;;;24.16;43.36;101838.16;4985366;28;20056;-76
2021/06/14 09:47:25;;;;;;;3.33;1.02;;;24.40;90.10;;;23.81;42.06;101830.44;4966529;28;20045;-75
2021/06/14 09:51:01;;;;;;;4.63;0.98;;;24.30;90.20;;;23.98;41.58;101823.63;4986482;28;20033;-75
2021/06/14 09:54:33;;;;;;;4.65;1.00;;;23.70;90.90;;;23.35;44.83;101816.34;4984202;28;20042;-76
2021/06/14 09:57:57;;;;;;;5.82;1.45;;;23.70;92.20;;;23.53;45.52;101811.25;4982332;28;20112;-75
2021/06/14 10:01:23;;;;;;;1.55;0.90;;;24.00;92.60;;;23.85;44.01;101808.53;4958893;28;20038;-76
2021/06/14 10:04:58;;;;;;;2.85;1.00;;;24.20;91.60;;;24.14;42.61;101807.84;4976942;28;20055;-76
2021/06/14 10:08:28;;;;;;;2.58;1.05;;;24.60;91.00;;;24.45;43.06;101788.97;4986936;28;20041;-76
2021/06/14 10:12:14;;;;;;;6.72;1.30;;;24.80;90.30;;;24.74;42.53;101784.56;4980423;28;20025;-75
2021/06/14 10:16:15;;;;;;;9.15;1.35;;;25.00;90.30;;;24.47;42.11;101789.69;5000551;28;20091;-76
2021/06/14 10:20:32;;;;;;;3.58;1.23;;;24.60;90.30;;;24.52;43.49;101782.97;4998757;28;20965;-76
2021/06/14 10:23:47;;;;;;;2.80;1.20;;;24.50;90.40;;;24.19;42.62;101784.09;5002989;28;21752;-75
2021/06/14 10:27:20;;;;;;;3.35;1.05;;;24.40;91.40;;;24.03;43.64;101784.56;4988653;28;20531;-75
2021/06/14 10:30:35;;;;;;;4.18;1.20;;;24.30;90.90;;;24.14;43.65;101775.56;4969623;28;20034;-75
2021/06/14 10:33:59;;;;;;;4.18;1.00;;;24.70;90.80;;;24.73;42.81;101757.78;4984822;28;20079;-76
2021/06/14 10:36:56;;;;;;;2.95;1.08;;;25.10;89.60;;;24.90;41.69;101769.72;4980328;28;20040;-75
2021/06/14 10:39:55;;;;;;;4.00;1.27;;;25.50;90.10;;;25.56;40.78;101769.03;4977875;28;20075;-76
2021/06/14 10:43:15;;;;;;;6.10;1.00;;;25.60;88.60;;;25.35;41.78;101763.81;4969215;28;20067;-76
2021/06/14 10:46:20;;;;;;;2.67;0.80;;;25.50;89.20;;;25.51;40.89;101757.84;4956237;28;20033;-76
2021/06/14 10:49:12;;;;;;;2.95;1.13;;;25.80;86.90;;;25.44;40.13;101759.41;4967426;28;20536;-76
2021/06/14 10:52:22;;;;;;;3.90;0.98;;;25.80;88.30;;;25.77;41.54;101755.38;4967955;28;20492;-76